Damme, Belgium
Current Conditions -  °F | °C
As of 7:25 PM on Thursday 29 Jan 2015 (Local Time) from EHFS Reporting Station
Light Rain Light Rain  
Wind Chill: -1°   Ceiling: 2000
Heat Index:   Visibility: 6mi
Dew Point:   Wind: 18mph
Humidity: 87%   Direction: 200°SSW
Pressure: 28.73"   Gusts: NA
Location:  51.25°N, 3.28°E
Report Text: EHFS 291825Z AUTO 20016KT 9999 -RA FEW010/// SCT016///BKN020/// 04/02 Q0973
Loading
Personal Weather Stations






























Interactive Weather Map New forecast layout! Learn more

10-Day Weather Forecast

Advertisements
Track Severe Weather on mobile